Time,TemperatureF,DewpointF,PressureIn,WindDirection,WindDirectionDegrees,WindSpeedMPH,WindSpeedGustMPH,Humidity,HourlyPrecipIn,Conditions,Clouds,dailyrainin,SoftwareType,DateUTC
2013-05-23 00:00:00,55.4,54.6,29.74,NNW,339,0.0,2.0,97,0.00,,,0.00,Wunderground v.1.15,2013-05-23 05:00:00,
2013-05-23 00:05:00,55.1,54.5,29.74,NNE,20,1.0,2.0,98,0.00,,,0.00,Wunderground v.1.15,2013-05-23 05:05:00,
2013-05-23 00:10:00,55.0,54.2,29.74,NNE,20,1.0,1.0,97,0.00,,,0.00,Wunderground v.1.15,2013-05-23 05:10:00,
2013-05-23 00:15:00,54.9,54.3,29.75,NNE,20,0.0,1.0,98,0.00,,,0.01,Wunderground v.1.15,2013-05-23 05:15:00,
2013-05-23 00:20:00,54.7,54.1,29.75,ENE,63,0.0,0.0,98,0.00,,,0.01,Wunderground v.1.15,2013-05-23 05:20:00,
2013-05-23 00:25:00,54.4,53.6,29.75,NNE,32,1.0,4.0,97,0.00,,,0.01,Wunderground v.1.15,2013-05-23 05:25:00,
2013-05-23 00:30:00,54.1,53.3,29.75,NNE,32,0.0,0.0,97,0.00,,,0.01,Wunderground v.1.15,2013-05-23 05:30:00,
2013-05-23 00:35:00,53.8,53.0,29.75,NNE,27,1.0,1.0,97,0.00,,,0.01,Wunderground v.1.15,2013-05-23 05:35:00,
2013-05-23 00:40:00,53.6,52.8,29.75,NE,49,1.0,1.0,97,0.00,,,0.01,Wunderground v.1.15,2013-05-23 05:40:00,
2013-05-23 00:44:00,53.5,52.9,29.75,South,182,1.0,1.0,98,0.00,,,0.01,Wunderground v.1.15,2013-05-23 05:44:00,
2013-05-23 00:50:00,53.3,52.8,29.75,ENE,57,0.0,2.0,98,0.00,,,0.01,Wunderground v.1.15,2013-05-23 05:50:00,
2013-05-23 00:55:00,53.2,52.7,29.75,ENE,57,0.0,2.0,98,0.00,,,0.01,Wunderground v.1.15,2013-05-23 05:55:00,
2013-05-23 01:00:00,53.2,52.7,29.75,ENE,57,0.0,2.0,98,0.00,,,0.01,Wunderground v.1.15,2013-05-23 06:00:00,
2013-05-23 01:10:00,53.0,52.5,29.76,NNE,22,1.0,2.0,98,0.00,,,0.01,Wunderground v.1.15,2013-05-23 06:10:00,
2013-05-23 01:15:00,52.8,52.3,29.76,NNE,29,1.0,2.0,98,0.00,,,0.01,Wunderground v.1.15,2013-05-23 06:15:00,
2013-05-23 01:19:00,52.6,51.8,29.76,NNE,13,1.0,1.0,97,0.00,,,0.01,Wunderground v.1.15,2013-05-23 06:19:00,
2013-05-23 01:25:00,52.4,51.9,29.76,NNE,24,1.0,1.0,98,0.00,,,0.01,Wunderground v.1.15,2013-05-23 06:25:00,
2013-05-23 01:30:00,52.3,51.8,29.77,NNE,30,0.0,0.0,98,0.00,,,0.02,Wunderground v.1.15,2013-05-23 06:30:00,
2013-05-23 01:35:00,52.1,51.3,29.77,NNE,23,1.0,1.0,97,0.00,,,0.02,Wunderground v.1.15,2013-05-23 06:35:00,
2013-05-23 01:40:00,52.0,51.5,29.77,NE,53,1.0,1.0,98,0.00,,,0.02,Wunderground v.1.15,2013-05-23 06:40:00,
2013-05-23 01:45:00,51.9,51.4,29.77,NNE,21,0.0,3.0,98,0.00,,,0.02,Wunderground v.1.15,2013-05-23 06:45:00,
2013-05-23 01:50:00,51.8,51.3,29.77,NNE,27,0.0,0.0,98,0.00,,,0.02,Wunderground v.1.15,2013-05-23 06:50:00,
2013-05-23 01:55:00,51.8,51.3,29.77,NNE,27,0.0,0.0,98,0.00,,,0.02,Wunderground v.1.15,2013-05-23 06:55:00,
2013-05-23 02:00:00,51.8,51.3,29.78,NNE,30,1.0,1.0,98,0.00,,,0.02,Wunderground v.1.15,2013-05-23 07:00:00,
2013-05-23 02:05:00,51.8,51.3,29.78,NNE,19,1.0,4.0,98,0.00,,,0.02,Wunderground v.1.15,2013-05-23 07:05:00,
2013-05-23 02:10:00,51.7,51.2,29.78,North,360,1.0,1.0,98,0.00,,,0.02,Wunderground v.1.15,2013-05-23 07:10:00,
2013-05-23 02:15:00,51.7,51.2,29.78,NNE,32,0.0,1.0,98,0.00,,,0.02,Wunderground v.1.15,2013-05-23 07:15:00,
2013-05-23 02:20:00,51.6,51.1,29.78,NNE,25,1.0,1.0,98,0.00,,,0.02,Wunderground v.1.15,2013-05-23 07:20:00,
2013-05-23 02:25:00,51.5,51.0,29.78,NNE,24,1.0,1.0,98,0.00,,,0.02,Wunderground v.1.15,2013-05-23 07:25:00,
2013-05-23 02:30:00,51.5,51.0,29.78,NNE,15,0.0,1.0,98,0.00,,,0.03,Wunderground v.1.15,2013-05-23 07:30:00,
2013-05-23 02:35:00,51.4,50.9,29.79,NNE,17,1.0,1.0,98,0.00,,,0.03,Wunderground v.1.15,2013-05-23 07:35:00,
2013-05-23 02:40:00,51.4,50.9,29.79,NE,34,1.0,1.0,98,0.00,,,0.03,Wunderground v.1.15,2013-05-23 07:40:00,
2013-05-23 02:45:00,51.3,50.8,29.79,NNE,24,1.0,2.0,98,0.00,,,0.03,Wunderground v.1.15,2013-05-23 07:45:00,
2013-05-23 02:50:00,51.3,50.8,29.79,NNE,29,1.0,1.0,98,0.00,,,0.03,Wunderground v.1.15,2013-05-23 07:50:00,
2013-05-23 03:00:00,51.3,50.8,29.79,NNE,19,1.0,1.0,98,0.00,,,0.04,Wunderground v.1.15,2013-05-23 08:00:00,
2013-05-23 04:30:00,51.3,50.8,29.83,NNE,32,1.0,1.0,98,0.00,,,0.07,Wunderground v.1.15,2013-05-23 09:30:00,
2013-05-23 04:34:00,51.1,50.6,29.83,North,5,1.0,1.0,98,0.00,,,0.07,Wunderground v.1.15,2013-05-23 09:34:00,
2013-05-23 04:40:00,50.9,50.4,29.83,NNE,32,1.0,1.0,98,0.00,,,0.07,Wunderground v.1.15,2013-05-23 09:40:00,
2013-05-23 04:45:00,50.8,50.3,29.83,NNE,32,1.0,2.0,98,0.00,,,0.07,Wunderground v.1.15,2013-05-23 09:45:00,
2013-05-23 04:50:00,50.7,50.2,29.84,NE,37,1.0,1.0,98,0.00,,,0.07,Wunderground v.1.15,2013-05-23 09:50:00,
2013-05-23 04:55:00,50.6,50.1,29.84,NNE,33,1.0,1.0,98,0.00,,,0.07,Wunderground v.1.15,2013-05-23 09:55:00,
2013-05-23 05:00:00,50.5,50.0,29.84,NNE,19,1.0,1.0,98,0.00,,,0.07,Wunderground v.1.15,2013-05-23 10:00:00,
2013-05-23 05:05:00,50.4,49.9,29.85,NE,42,2.0,3.0,98,0.00,,,0.07,Wunderground v.1.15,2013-05-23 10:05:00,
2013-05-23 05:10:00,50.3,49.8,29.85,NE,46,2.0,2.0,98,0.00,,,0.07,Wunderground v.1.15,2013-05-23 10:10:00,
2013-05-23 05:15:00,50.2,49.7,29.85,NNE,24,1.0,2.0,98,0.00,,,0.07,Wunderground v.1.15,2013-05-23 10:15:00,
2013-05-23 05:20:00,50.2,49.7,29.85,NNE,24,1.0,1.0,98,0.00,,,0.07,Wunderground v.1.15,2013-05-23 10:20:00,
2013-05-23 05:25:00,50.3,49.8,29.86,NE,37,1.0,1.0,98,0.00,,,0.07,Wunderground v.1.15,2013-05-23 10:25:00,
2013-05-23 05:30:00,50.3,49.8,29.86,North,5,0.0,0.0,98,0.00,,,0.07,Wunderground v.1.15,2013-05-23 10:30:00,
2013-05-23 05:35:00,50.3,49.8,29.87,NNE,32,1.0,1.0,98,0.00,,,0.07,Wunderground v.1.15,2013-05-23 10:35:00,
2013-05-23 05:40:00,50.3,49.8,29.87,ENE,59,1.0,1.0,98,0.00,,,0.07,Wunderground v.1.15,2013-05-23 10:40:00,
2013-05-23 05:45:00,50.3,49.8,29.87,SSE,158,0.0,1.0,98,0.00,,,0.07,Wunderground v.1.15,2013-05-23 10:45:00,
2013-05-23 05:50:00,50.3,49.8,29.87,NNE,22,1.0,1.0,98,0.00,,,0.07,Wunderground v.1.15,2013-05-23 10:50:00,
2013-05-23 05:55:00,50.2,49.7,29.88,NE,34,1.0,1.0,98,0.00,,,0.07,Wunderground v.1.15,2013-05-23 10:55:00,
2013-05-23 06:00:00,50.1,49.6,29.88,NNW,342,1.0,1.0,98,0.00,,,0.07,Wunderground v.1.15,2013-05-23 11:00:00,
2013-05-23 06:05:00,50.0,49.5,29.89,NNE,18,1.0,1.0,98,0.00,,,0.07,Wunderground v.1.15,2013-05-23 11:05:00,
2013-05-23 06:10:00,50.0,49.5,29.90,North,355,0.0,6.0,98,0.00,,,0.07,Wunderground v.1.15,2013-05-23 11:10:00,
2013-05-23 06:15:00,49.9,49.1,29.90,NNE,23,1.0,6.0,97,0.00,,,0.07,Wunderground v.1.15,2013-05-23 11:15:00,
2013-05-23 06:20:00,49.7,48.9,29.90,North,360,2.0,4.0,97,0.00,,,0.07,Wunderground v.1.15,2013-05-23 11:20:00,
2013-05-23 06:25:00,49.4,48.6,29.91,NE,47,2.0,4.0,97,0.00,,,0.07,Wunderground v.1.15,2013-05-23 11:25:00,
2013-05-23 06:30:00,49.1,48.3,29.91,NE,35,2.0,2.0,97,0.00,,,0.07,Wunderground v.1.15,2013-05-23 11:30:00,
2013-05-23 06:35:00,49.0,48.2,29.91,NNE,24,1.0,2.0,97,0.00,,,0.07,Wunderground v.1.15,2013-05-23 11:35:00,
2013-05-23 06:40:00,49.0,48.2,29.92,NNE,23,1.0,1.0,97,0.00,,,0.07,Wunderground v.1.15,2013-05-23 11:40:00,
2013-05-23 06:45:00,49.0,48.2,29.92,NE,36,1.0,1.0,97,0.00,,,0.07,Wunderground v.1.15,2013-05-23 11:45:00,
2013-05-23 06:50:00,49.0,48.2,29.92,NE,36,1.0,1.0,97,0.00,,,0.08,Wunderground v.1.15,2013-05-23 11:50:00,
2013-05-23 06:55:00,48.9,48.1,29.92,NE,53,1.0,1.0,97,0.00,,,0.08,Wunderground v.1.15,2013-05-23 11:55:00,
2013-05-23 07:00:00,48.7,47.9,29.93,ENE,63,1.0,1.0,97,0.00,,,0.08,Wunderground v.1.15,2013-05-23 12:00:00,
2013-05-23 07:05:00,48.6,47.8,29.93,NE,40,1.0,6.0,97,0.00,,,0.08,Wunderground v.1.15,2013-05-23 12:05:00,
2013-05-23 07:10:00,48.6,47.8,29.94,NE,37,1.0,1.0,97,0.00,,,0.08,Wunderground v.1.15,2013-05-23 12:10:00,
2013-05-23 07:15:00,48.5,47.7,29.94,NE,40,2.0,2.0,97,0.00,,,0.08,Wunderground v.1.15,2013-05-23 12:15:00,
2013-05-23 07:20:00,48.4,47.6,29.94,NE,34,2.0,2.0,97,0.00,,,0.08,Wunderground v.1.15,2013-05-23 12:20:00,
2013-05-23 07:25:00,48.5,47.7,29.95,NNE,18,1.0,2.0,97,0.00,,,0.08,Wunderground v.1.15,2013-05-23 12:25:00,
2013-05-23 07:30:00,48.5,47.7,29.95,NNE,24,1.0,1.0,97,0.00,,,0.08,Wunderground v.1.15,2013-05-23 12:30:00,
2013-05-23 07:35:00,48.4,47.6,29.95,NNE,29,1.0,1.0,97,0.00,,,0.08,Wunderground v.1.15,2013-05-23 12:35:00,
2013-05-23 07:40:00,48.4,47.6,29.95,NNE,21,1.0,3.0,97,0.00,,,0.08,Wunderground v.1.15,2013-05-23 12:40:00,
2013-05-23 07:45:00,48.3,47.5,29.95,NNE,30,1.0,4.0,97,0.00,,,0.08,Wunderground v.1.15,2013-05-23 12:45:00,
2013-05-23 07:50:00,48.3,47.5,29.96,NNE,26,1.0,1.0,97,0.00,,,0.08,Wunderground v.1.15,2013-05-23 12:50:00,
2013-05-23 07:55:00,48.4,47.6,29.96,NE,34,1.0,1.0,97,0.00,,,0.08,Wunderground v.1.15,2013-05-23 12:55:00,
2013-05-23 08:00:00,48.3,47.5,29.97,NNE,19,1.0,1.0,97,0.00,,,0.08,Wunderground v.1.15,2013-05-23 13:00:00,
2013-05-23 08:05:00,48.1,47.0,29.97,North,355,2.0,6.0,96,0.00,,,0.08,Wunderground v.1.15,2013-05-23 13:05:00,
2013-05-23 08:10:00,48.0,46.9,29.97,North,5,3.0,3.0,96,0.00,,,0.08,Wunderground v.1.15,2013-05-23 13:10:00,
2013-05-23 08:15:00,47.8,46.7,29.98,NNE,27,3.0,3.0,96,0.00,,,0.08,Wunderground v.1.15,2013-05-23 13:15:00,
2013-05-23 08:20:00,47.8,46.7,29.98,NE,40,3.0,3.0,96,0.00,,,0.08,Wunderground v.1.15,2013-05-23 13:20:00,
2013-05-23 08:25:00,47.9,46.8,29.98,NNE,17,2.0,3.0,96,0.00,,,0.08,Wunderground v.1.15,2013-05-23 13:25:00,
2013-05-23 08:30:00,48.1,47.0,29.98,NNE,22,1.0,1.0,96,0.00,,,0.08,Wunderground v.1.15,2013-05-23 13:30:00,
2013-05-23 08:35:00,48.2,47.1,29.99,NE,37,1.0,1.0,96,0.00,,,0.08,Wunderground v.1.15,2013-05-23 13:35:00,
2013-05-23 08:45:00,48.5,47.4,30.00,NNE,26,1.0,1.0,96,0.00,,,0.08,Wunderground v.1.15,2013-05-23 13:45:00,
2013-05-23 08:55:00,48.5,47.4,30.00,North,360,2.0,2.0,96,0.00,,,0.08,Wunderground v.1.15,2013-05-23 13:55:00,
2013-05-23 09:00:00,48.3,46.9,30.00,NNE,28,3.0,3.0,95,0.00,,,0.08,Wunderground v.1.15,2013-05-23 14:00:00,
2013-05-23 09:05:00,48.2,46.8,30.00,NW,317,2.0,3.0,95,0.00,,,0.08,Wunderground v.1.15,2013-05-23 14:05:00,
2013-05-23 09:10:00,48.4,47.0,30.01,NNE,13,1.0,1.0,95,0.00,,,0.08,Wunderground v.1.15,2013-05-23 14:10:00,
2013-05-23 09:15:00,48.4,47.0,30.01,North,5,2.0,9.0,95,0.00,,,0.08,Wunderground v.1.15,2013-05-23 14:15:00,
2013-05-23 09:25:00,48.7,47.3,30.01,NNE,13,1.0,2.0,95,0.00,,,0.08,Wunderground v.1.15,2013-05-23 14:25:00,
2013-05-23 09:30:00,48.7,47.3,30.01,NNE,23,1.0,1.0,95,0.00,,,0.08,Wunderground v.1.15,2013-05-23 14:30:00,
2013-05-23 09:35:00,48.8,47.2,30.01,NNE,24,2.0,2.0,94,0.00,,,0.08,Wunderground v.1.15,2013-05-23 14:35:00,
2013-05-23 09:40:00,48.9,47.2,30.02,NNE,18,2.0,2.0,94,0.00,,,0.08,Wunderground v.1.15,2013-05-23 14:40:00,
2013-05-23 09:45:00,48.9,47.0,30.02,NNE,33,2.0,2.0,93,0.00,,,0.08,Wunderground v.1.15,2013-05-23 14:45:00,
2013-05-23 09:49:00,49.0,47.1,30.03,NE,36,1.0,2.0,93,0.00,,,0.08,Wunderground v.1.15,2013-05-23 14:49:00,
2013-05-23 09:55:00,49.0,46.8,30.03,NNE,32,2.0,3.0,92,0.00,,,0.08,Wunderground v.1.15,2013-05-23 14:55:00,
2013-05-23 10:00:00,49.2,47.0,30.03,NNE,19,2.0,7.0,92,0.00,,,0.08,Wunderground v.1.15,2013-05-23 15:00:00,
2013-05-23 10:10:00,49.5,46.7,30.04,NE,43,3.0,3.0,90,0.00,,,0.08,Wunderground v.1.15,2013-05-23 15:10:00,
2013-05-23 10:15:00,49.9,47.7,30.04,North,11,2.0,6.0,92,0.00,,,0.08,Wunderground v.1.15,2013-05-23 15:15:00,
2013-05-23 10:20:00,50.1,47.3,30.05,NNW,344,2.0,4.0,90,0.00,,,0.08,Wunderground v.1.15,2013-05-23 15:20:00,
2013-05-23 10:25:00,50.1,47.3,30.05,North,9,2.0,4.0,90,0.00,,,0.08,Wunderground v.1.15,2013-05-23 15:25:00,
2013-05-23 10:30:00,50.1,47.3,30.05,NNE,13,1.0,1.0,90,0.00,,,0.08,Wunderground v.1.15,2013-05-23 15:30:00,
2013-05-23 10:35:00,50.0,46.9,30.05,North,355,3.0,4.0,89,0.00,,,0.08,Wunderground v.1.15,2013-05-23 15:35:00,
2013-05-23 10:40:00,49.9,46.8,30.05,NNE,29,3.0,3.0,89,0.00,,,0.08,Wunderground v.1.15,2013-05-23 15:40:00,
2013-05-23 10:45:00,50.2,47.4,30.05,NNE,23,1.0,3.0,90,0.00,,,0.08,Wunderground v.1.15,2013-05-23 15:45:00,
2013-05-23 10:50:00,50.6,47.5,30.05,NW,320,1.0,4.0,89,0.00,,,0.08,Wunderground v.1.15,2013-05-23 15:50:00,
2013-05-23 10:55:00,50.8,47.1,30.06,NNE,30,2.0,4.0,87,0.00,,,0.08,Wunderground v.1.15,2013-05-23 15:55:00,
2013-05-23 11:00:00,50.8,47.1,30.06,NNE,13,3.0,4.0,87,0.00,,,0.08,Wunderground v.1.15,2013-05-23 16:00:00,
2013-05-23 11:05:00,50.9,47.2,30.06,NNW,348,3.0,4.0,87,0.00,,,0.08,Wunderground v.1.15,2013-05-23 16:05:00,
2013-05-23 11:10:00,51.1,47.1,30.06,NNE,19,2.0,5.0,86,0.00,,,0.08,Wunderground v.1.15,2013-05-23 16:10:00,
2013-05-23 11:15:00,51.4,47.4,30.07,NNE,28,3.0,5.0,86,0.00,,,0.08,Wunderground v.1.15,2013-05-23 16:15:00,
2013-05-23 11:20:00,51.8,47.4,30.07,NNE,15,3.0,4.0,85,0.00,,,0.08,Wunderground v.1.15,2013-05-23 16:20:00,
2013-05-23 11:25:00,52.0,47.0,30.07,NE,40,2.0,4.0,83,0.00,,,0.08,Wunderground v.1.15,2013-05-23 16:25:00,
2013-05-23 11:30:00,52.3,47.6,30.08,North,355,2.0,2.0,84,0.00,,,0.08,Wunderground v.1.15,2013-05-23 16:30:00,
2013-05-23 11:35:00,52.7,47.7,30.07,NNE,24,2.0,2.0,83,0.00,,,0.08,Wunderground v.1.15,2013-05-23 16:35:00,
2013-05-23 11:40:00,53.2,47.5,30.07,NNE,32,2.0,5.0,81,0.00,,,0.08,Wunderground v.1.15,2013-05-23 16:40:00,
2013-05-23 11:45:00,53.7,47.3,30.07,NNE,23,2.0,5.0,79,0.00,,,0.08,Wunderground v.1.15,2013-05-23 16:45:00,
2013-05-23 11:50:00,54.3,48.9,30.07,NE,38,1.0,1.0,82,0.00,,,0.08,Wunderground v.1.15,2013-05-23 16:50:00,
2013-05-23 11:55:00,55.3,48.9,30.07,NNW,343,1.0,2.0,79,0.00,,,0.08,Wunderground v.1.15,2013-05-23 16:55:00,
2013-05-23 12:00:00,55.7,47.9,30.08,North,360,2.0,2.0,75,0.00,,,0.08,Wunderground v.1.15,2013-05-23 17:00:00,
2013-05-23 12:05:00,55.8,48.0,30.08,NNE,15,2.0,2.0,75,0.00,,,0.08,Wunderground v.1.15,2013-05-23 17:05:00,
2013-05-23 12:10:00,55.9,48.4,30.08,NE,42,1.0,1.0,76,0.00,,,0.08,Wunderground v.1.15,2013-05-23 17:10:00,
2013-05-23 12:15:00,56.6,48.8,30.08,NE,34,2.0,2.0,75,0.00,,,0.08,Wunderground v.1.15,2013-05-23 17:15:00,
2013-05-23 12:20:00,57.1,47.8,30.08,ENE,62,1.0,1.0,71,0.00,,,0.08,Wunderground v.1.15,2013-05-23 17:20:00,
2013-05-23 12:25:00,57.5,48.9,30.08,ENE,62,1.0,2.0,73,0.00,,,0.08,Wunderground v.1.15,2013-05-23 17:25:00,
2013-05-23 12:30:00,57.4,48.4,30.08,North,355,1.0,11.0,72,0.00,,,0.08,Wunderground v.1.15,2013-05-23 17:30:00,
2013-05-23 12:35:00,57.4,48.4,30.09,North,355,2.0,11.0,72,0.00,,,0.08,Wunderground v.1.15,2013-05-23 17:35:00,
2013-05-23 12:40:00,57.3,48.0,30.09,NNE,15,2.0,5.0,71,0.00,,,0.08,Wunderground v.1.15,2013-05-23 17:40:00,
2013-05-23 12:45:00,57.7,49.8,30.09,NNW,343,2.0,5.0,75,0.00,,,0.08,Wunderground v.1.15,2013-05-23 17:45:00,
2013-05-23 12:50:00,58.1,48.4,30.09,NNE,18,1.0,5.0,70,0.00,,,0.08,Wunderground v.1.15,2013-05-23 17:50:00,
2013-05-23 12:55:00,58.4,48.7,30.09,NNE,24,2.0,5.0,70,0.00,,,0.08,Wunderground v.1.15,2013-05-23 17:55:00,
2013-05-23 13:00:00,58.8,49.4,30.09,NNE,18,2.0,2.0,71,0.00,,,0.08,Wunderground v.1.15,2013-05-23 18:00:00,
2013-05-23 13:05:00,59.0,49.6,30.09,NE,46,2.0,2.0,71,0.00,,,0.08,Wunderground v.1.15,2013-05-23 18:05:00,
2013-05-23 13:10:00,59.1,48.1,30.10,NNE,14,2.0,2.0,67,0.00,,,0.08,Wunderground v.1.15,2013-05-23 18:10:00,
2013-05-23 13:15:00,59.6,49.0,30.09,NNE,26,3.0,3.0,68,0.00,,,0.08,Wunderground v.1.15,2013-05-23 18:15:00,
2013-05-23 13:20:00,59.7,49.1,30.10,North,5,2.0,6.0,68,0.00,,,0.08,Wunderground v.1.15,2013-05-23 18:20:00,
2013-05-23 13:25:00,60.1,49.5,30.10,NNE,20,1.0,6.0,68,0.00,,,0.08,Wunderground v.1.15,2013-05-23 18:25:00,
2013-05-23 13:30:00,60.6,50.4,30.10,NNE,18,1.0,1.0,69,0.00,,,0.08,Wunderground v.1.15,2013-05-23 18:30:00,
2013-05-23 13:35:00,61.1,49.7,30.10,East,82,2.0,2.0,66,0.00,,,0.08,Wunderground v.1.15,2013-05-23 18:35:00,
2013-05-23 13:44:00,60.7,48.9,30.10,NE,44,1.0,3.0,65,0.00,,,0.08,Wunderground v.1.15,2013-05-23 18:44:00,
2013-05-23 13:49:00,60.9,48.6,30.10,NNE,19,2.0,2.0,64,0.00,,,0.08,Wunderground v.1.15,2013-05-23 18:49:00,
2013-05-23 13:54:00,61.1,48.8,30.10,NNE,20,3.0,5.0,64,0.00,,,0.08,Wunderground v.1.15,2013-05-23 18:54:00,
2013-05-23 14:00:00,60.7,48.4,30.10,NNW,346,3.0,7.0,64,0.00,,,0.08,Wunderground v.1.15,2013-05-23 19:00:00,
2013-05-23 14:04:00,60.8,49.4,30.10,SSW,213,2.0,7.0,66,0.00,,,0.08,Wunderground v.1.15,2013-05-23 19:04:00,
2013-05-23 14:10:00,61.1,48.8,30.10,NNE,27,2.0,2.0,64,0.00,,,0.08,Wunderground v.1.15,2013-05-23 19:10:00,
2013-05-23 14:15:00,61.3,49.8,30.10,NNE,30,2.0,2.0,66,0.00,,,0.08,Wunderground v.1.15,2013-05-23 19:15:00,
2013-05-23 14:20:00,61.9,49.6,30.10,North,5,2.0,2.0,64,0.00,,,0.08,Wunderground v.1.15,2013-05-23 19:20:00,
2013-05-23 14:25:00,62.6,49.8,30.11,North,355,2.0,4.0,63,0.00,,,0.08,Wunderground v.1.15,2013-05-23 19:25:00,
2013-05-23 14:30:00,62.6,49.0,30.11,NE,38,2.0,5.0,61,0.00,,,0.08,Wunderground v.1.15,2013-05-23 19:30:00,
2013-05-23 14:35:00,62.0,49.3,30.11,NW,319,2.0,6.0,63,0.00,,,0.08,Wunderground v.1.15,2013-05-23 19:35:00,
2013-05-23 14:45:00,61.2,48.9,30.11,ENE,74,1.0,2.0,64,0.00,,,0.08,Wunderground v.1.15,2013-05-23 19:45:00,
2013-05-23 14:50:00,60.9,48.2,30.11,NNE,13,1.0,1.0,63,0.00,,,0.08,Wunderground v.1.15,2013-05-23 19:50:00,
2013-05-23 14:55:00,60.9,48.6,30.11,NNE,24,1.0,4.0,64,0.00,,,0.08,Wunderground v.1.15,2013-05-23 19:55:00,
2013-05-23 15:00:00,61.8,48.2,30.11,North,360,2.0,8.0,61,0.00,,,0.08,Wunderground v.1.15,2013-05-23 20:00:00,
2013-05-23 15:05:00,62.8,50.0,30.11,NNE,18,3.0,8.0,63,0.00,,,0.08,Wunderground v.1.15,2013-05-23 20:05:00,
2013-05-23 15:10:00,63.6,50.8,30.11,North,9,2.0,3.0,63,0.00,,,0.08,Wunderground v.1.15,2013-05-23 20:10:00,
2013-05-23 15:15:00,64.0,49.4,30.11,NNE,19,1.0,3.0,59,0.00,,,0.08,Wunderground v.1.15,2013-05-23 20:15:00,
2013-05-23 15:20:00,64.2,50.0,30.11,NNE,22,1.0,1.0,60,0.00,,,0.08,Wunderground v.1.15,2013-05-23 20:20:00,
2013-05-23 15:25:00,63.8,48.7,30.11,NNE,22,1.0,1.0,58,0.00,,,0.08,Wunderground v.1.15,2013-05-23 20:25:00,
2013-05-23 15:30:00,63.4,49.3,30.11,NE,34,1.0,1.0,60,0.00,,,0.08,Wunderground v.1.15,2013-05-23 20:30:00,
2013-05-23 15:35:00,62.7,47.7,30.11,NNE,20,1.0,1.0,58,0.00,,,0.08,Wunderground v.1.15,2013-05-23 20:35:00,
2013-05-23 15:39:00,62.2,48.1,30.12,NNE,21,1.0,2.0,60,0.00,,,0.08,Wunderground v.1.15,2013-05-23 20:39:00,
2013-05-23 15:45:00,61.9,48.3,30.12,NNE,18,1.0,2.0,61,0.00,,,0.08,Wunderground v.1.15,2013-05-23 20:45:00,
2013-05-23 15:50:00,62.2,49.4,30.12,NNE,19,1.0,4.0,63,0.00,,,0.08,Wunderground v.1.15,2013-05-23 20:50:00,
2013-05-23 15:55:00,63.3,48.7,30.12,NNE,18,2.0,4.0,59,0.00,,,0.08,Wunderground v.1.15,2013-05-23 20:55:00,
2013-05-23 16:00:00,63.9,50.2,30.12,North,5,3.0,3.0,61,0.00,,,0.08,Wunderground v.1.15,2013-05-23 21:00:00,
2013-05-23 16:10:00,64.3,48.7,30.13,NNE,23,1.0,1.0,57,0.00,,,0.08,Wunderground v.1.15,2013-05-23 21:10:00,
2013-05-23 16:20:00,62.7,46.8,30.13,NNE,17,1.0,1.0,56,0.00,,,0.08,Wunderground v.1.15,2013-05-23 21:20:00,
2013-05-23 16:25:00,62.3,47.8,30.13,NNE,17,0.0,1.0,59,0.00,,,0.08,Wunderground v.1.15,2013-05-23 21:25:00,
2013-05-23 16:30:00,62.8,49.6,30.13,North,351,0.0,0.0,62,0.00,,,0.08,Wunderground v.1.15,2013-05-23 21:30:00,
2013-05-23 16:35:00,62.9,47.4,30.13,North,360,1.0,1.0,57,0.00,,,0.08,Wunderground v.1.15,2013-05-23 21:35:00,
2013-05-23 16:40:00,62.6,47.6,30.13,NNE,13,1.0,1.0,58,0.00,,,0.08,Wunderground v.1.15,2013-05-23 21:40:00,
2013-05-23 16:45:00,62.6,46.7,30.13,NNE,26,0.0,4.0,56,0.00,,,0.08,Wunderground v.1.15,2013-05-23 21:45:00,
2013-05-23 16:50:00,62.7,44.8,30.15,WSW,258,1.0,1.0,52,0.00,,,0.08,Wunderground v.1.15,2013-05-23 21:50:00,
2013-05-23 16:55:00,62.6,44.7,30.15,NNW,347,2.0,4.0,52,0.00,,,0.08,Wunderground v.1.15,2013-05-23 21:55:00,
2013-05-23 17:00:00,63.0,43.5,30.15,NE,42,1.0,1.0,49,0.00,,,0.08,Wunderground v.1.15,2013-05-23 22:00:00,
2013-05-23 17:05:00,63.1,43.6,30.15,North,355,1.0,1.0,49,0.00,,,0.08,Wunderground v.1.15,2013-05-23 22:05:00,
2013-05-23 17:10:00,63.2,42.1,30.15,NNE,25,1.0,1.0,46,0.00,,,0.08,Wunderground v.1.15,2013-05-23 22:10:00,
2013-05-23 17:14:00,63.3,43.8,30.15,North,5,1.0,1.0,49,0.00,,,0.08,Wunderground v.1.15,2013-05-23 22:14:00,
2013-05-23 17:20:00,63.7,42.5,30.16,NNE,28,1.0,1.0,46,0.00,,,0.08,Wunderground v.1.15,2013-05-23 22:20:00,
2013-05-23 17:25:00,63.5,42.9,30.16,NNE,32,0.0,1.0,47,0.00,,,0.08,Wunderground v.1.15,2013-05-23 22:25:00,
2013-05-23 17:30:00,63.3,42.2,30.16,NNE,33,0.0,0.0,46,0.00,,,0.08,Wunderground v.1.15,2013-05-23 22:30:00,
2013-05-23 17:35:00,62.8,43.3,30.16,North,355,0.0,0.0,49,0.00,,,0.08,Wunderground v.1.15,2013-05-23 22:35:00,
2013-05-23 17:40:00,62.3,43.9,30.16,North,355,0.0,0.0,51,0.00,,,0.08,Wunderground v.1.15,2013-05-23 22:40:00,
2013-05-23 17:45:00,62.2,43.8,30.16,NE,42,0.0,1.0,51,0.00,,,0.08,Wunderground v.1.15,2013-05-23 22:45:00,
2013-05-23 17:55:00,62.1,42.7,30.16,North,355,1.0,1.0,49,0.00,,,0.08,Wunderground v.1.15,2013-05-23 22:55:00,
2013-05-23 18:00:00,61.8,43.5,30.17,NNE,30,0.0,0.0,51,0.00,,,0.08,Wunderground v.1.15,2013-05-23 23:00:00,
2013-05-23 18:05:00,61.5,43.2,30.17,NNE,29,0.0,1.0,51,0.00,,,0.08,Wunderground v.1.15,2013-05-23 23:05:00,
2013-05-23 18:10:00,61.3,43.0,30.17,NE,40,1.0,1.0,51,0.00,,,0.08,Wunderground v.1.15,2013-05-23 23:10:00,
2013-05-23 18:15:00,60.9,41.1,30.17,NNE,32,1.0,1.0,48,0.00,,,0.08,Wunderground v.1.15,2013-05-23 23:15:00,
2013-05-23 18:25:00,60.1,40.9,30.17,NNE,32,0.0,0.0,49,0.00,,,0.08,Wunderground v.1.15,2013-05-23 23:25:00,
2013-05-23 18:30:00,59.8,42.1,30.17,NE,53,0.0,0.0,52,0.00,,,0.08,Wunderground v.1.15,2013-05-23 23:30:00,
2013-05-23 18:35:00,59.5,42.3,30.18,NE,53,0.0,0.0,53,0.00,,,0.08,Wunderground v.1.15,2013-05-23 23:35:00,
2013-05-23 18:40:00,59.3,41.7,30.18,NE,49,0.0,0.0,52,0.00,,,0.08,Wunderground v.1.15,2013-05-23 23:40:00,
2013-05-23 18:45:00,59.0,41.9,30.19,NE,48,0.0,0.0,53,0.00,,,0.08,Wunderground v.1.15,2013-05-23 23:45:00,
2013-05-23 18:50:00,59.0,41.4,30.18,NE,48,0.0,0.0,52,0.00,,,0.08,Wunderground v.1.15,2013-05-23 23:50:00,
2013-05-23 18:55:00,59.0,41.4,30.19,NE,49,0.0,0.0,52,0.00,,,0.08,Wunderground v.1.15,2013-05-23 23:55:00,
2013-05-23 19:00:00,58.9,41.3,30.19,NE,49,0.0,0.0,52,0.00,,,0.08,Wunderground v.1.15,2013-05-24 00:00:00,
2013-05-23 19:05:00,58.5,41.4,30.19,NE,49,0.0,0.0,53,0.00,,,0.08,Wunderground v.1.15,2013-05-24 00:05:00,
2013-05-23 19:10:00,58.2,41.6,30.19,NE,49,0.0,0.0,54,0.00,,,0.08,Wunderground v.1.15,2013-05-24 00:10:00,
2013-05-23 19:15:00,58.0,40.5,30.19,NE,49,0.0,0.0,52,0.00,,,0.08,Wunderground v.1.15,2013-05-24 00:15:00,
2013-05-23 19:20:00,57.8,40.3,30.19,NE,49,0.0,0.0,52,0.00,,,0.08,Wunderground v.1.15,2013-05-24 00:20:00,
2013-05-23 19:25:00,57.5,40.5,30.19,NE,49,0.0,0.0,53,0.00,,,0.08,Wunderground v.1.15,2013-05-24 00:25:00,
2013-05-23 19:30:00,57.3,40.3,30.19,NE,49,0.0,0.0,53,0.00,,,0.08,Wunderground v.1.15,2013-05-24 00:30:00,
2013-05-23 19:34:00,57.0,40.5,30.19,NNW,333,0.0,0.0,54,0.00,,,0.08,Wunderground v.1.15,2013-05-24 00:34:00,
2013-05-23 19:39:00,56.7,40.7,30.20,NNW,333,0.0,0.0,55,0.00,,,0.08,Wunderground v.1.15,2013-05-24 00:39:00,
2013-05-23 19:44:00,56.4,40.0,30.20,NNW,333,0.0,0.0,54,0.00,,,0.08,Wunderground v.1.15,2013-05-24 00:44:00,
2013-05-23 19:49:00,56.1,40.6,30.20,NNW,333,0.0,0.0,56,0.00,,,0.08,Wunderground v.1.15,2013-05-24 00:49:00,
2013-05-23 19:54:00,55.8,40.3,30.20,NNW,333,0.0,0.0,56,0.00,,,0.08,Wunderground v.1.15,2013-05-24 00:54:00,
2013-05-23 20:00:00,55.4,40.4,30.20,NNW,333,0.0,0.0,57,0.00,,,0.08,Wunderground v.1.15,2013-05-24 01:00:00,
2013-05-23 20:10:00,54.6,39.7,30.20,NNW,333,0.0,0.0,57,0.00,,,0.08,Wunderground v.1.15,2013-05-24 01:10:00,
2013-05-23 20:15:00,54.2,39.7,30.20,NNW,333,0.0,0.0,58,0.00,,,0.08,Wunderground v.1.15,2013-05-24 01:15:00,
2013-05-23 20:20:00,53.9,39.5,30.20,NNW,333,0.0,0.0,58,0.00,,,0.08,Wunderground v.1.15,2013-05-24 01:20:00,
2013-05-23 20:25:00,53.5,39.1,30.20,NNW,333,0.0,0.0,58,0.00,,,0.08,Wunderground v.1.15,2013-05-24 01:25:00,
2013-05-23 20:30:00,53.1,39.6,30.21,NNW,333,0.0,0.0,60,0.00,,,0.08,Wunderground v.1.15,2013-05-24 01:30:00,
2013-05-23 20:35:00,52.8,39.3,30.21,NNW,333,0.0,0.0,60,0.00,,,0.08,Wunderground v.1.15,2013-05-24 01:35:00,
2013-05-23 20:40:00,52.4,39.3,30.21,NNW,333,0.0,0.0,61,0.00,,,0.08,Wunderground v.1.15,2013-05-24 01:40:00,
2013-05-23 20:45:00,52.0,39.4,30.21,NNW,333,0.0,0.0,62,0.00,,,0.08,Wunderground v.1.15,2013-05-24 01:45:00,
2013-05-23 20:50:00,51.6,39.4,30.21,NNW,333,0.0,0.0,63,0.00,,,0.08,Wunderground v.1.15,2013-05-24 01:50:00,
2013-05-23 20:55:00,51.2,39.0,30.21,NNW,333,0.0,0.0,63,0.00,,,0.08,Wunderground v.1.15,2013-05-24 01:55:00,
2013-05-23 21:00:00,50.8,39.1,30.22,NNW,333,0.0,0.0,64,0.00,,,0.08,Wunderground v.1.15,2013-05-24 02:00:00,
2013-05-23 21:05:00,50.4,39.5,30.22,NNW,333,0.0,0.0,66,0.00,,,0.08,Wunderground v.1.15,2013-05-24 02:05:00,
2013-05-23 21:10:00,50.0,39.5,30.22,NNW,333,0.0,0.0,67,0.00,,,0.08,Wunderground v.1.15,2013-05-24 02:10:00,
2013-05-23 21:15:00,49.6,39.5,30.22,NNW,333,0.0,0.0,68,0.00,,,0.08,Wunderground v.1.15,2013-05-24 02:15:00,
2013-05-23 21:25:00,49.0,40.0,30.23,NNW,333,0.0,0.0,71,0.00,,,0.08,Wunderground v.1.15,2013-05-24 02:25:00,
2013-05-23 21:30:00,48.7,40.1,30.23,NNW,333,0.0,0.0,72,0.00,,,0.08,Wunderground v.1.15,2013-05-24 02:30:00,
2013-05-23 21:35:00,48.4,40.8,30.23,NNW,333,0.0,0.0,75,0.00,,,0.08,Wunderground v.1.15,2013-05-24 02:35:00,
2013-05-23 21:39:00,48.1,40.9,30.23,NNW,333,0.0,0.0,76,0.00,,,0.08,Wunderground v.1.15,2013-05-24 02:39:00,
2013-05-23 21:45:00,47.8,40.9,30.23,NNW,333,0.0,0.0,77,0.00,,,0.08,Wunderground v.1.15,2013-05-24 02:45:00,
2013-05-23 21:50:00,47.6,40.7,30.23,NNW,333,0.0,0.0,77,0.00,,,0.08,Wunderground v.1.15,2013-05-24 02:50:00,
2013-05-23 21:55:00,47.4,40.6,30.24,NNW,333,0.0,0.0,77,0.00,,,0.08,Wunderground v.1.15,2013-05-24 02:55:00,
2013-05-23 22:00:00,47.4,40.2,30.24,NNW,333,0.0,0.0,76,0.00,,,0.08,Wunderground v.1.15,2013-05-24 03:00:00,
2013-05-23 22:05:00,47.4,40.2,30.24,NNW,333,0.0,0.0,76,0.00,,,0.08,Wunderground v.1.15,2013-05-24 03:05:00,
2013-05-23 22:10:00,47.4,39.9,30.24,NNW,333,0.0,0.0,75,0.00,,,0.08,Wunderground v.1.15,2013-05-24 03:10:00,
2013-05-23 22:15:00,47.4,39.9,30.24,NNW,333,0.0,0.0,75,0.00,,,0.08,Wunderground v.1.15,2013-05-24 03:15:00,
2013-05-23 22:20:00,47.3,39.8,30.25,NNW,333,0.0,0.0,75,0.00,,,0.08,Wunderground v.1.15,2013-05-24 03:20:00,
2013-05-23 22:25:00,47.3,39.4,30.25,NNW,333,0.0,0.0,74,0.00,,,0.08,Wunderground v.1.15,2013-05-24 03:25:00,
2013-05-23 22:30:00,47.2,39.3,30.25,NNW,333,0.0,0.0,74,0.00,,,0.08,Wunderground v.1.15,2013-05-24 03:30:00,
2013-05-23 22:35:00,47.1,39.6,30.25,NNW,333,0.0,0.0,75,0.00,,,0.08,Wunderground v.1.15,2013-05-24 03:35:00,
2013-05-23 22:40:00,47.0,39.5,30.26,NNW,333,0.0,0.0,75,0.00,,,0.08,Wunderground v.1.15,2013-05-24 03:40:00,
2013-05-23 22:45:00,46.8,39.6,30.26,NNW,333,0.0,0.0,76,0.00,,,0.08,Wunderground v.1.15,2013-05-24 03:45:00,
2013-05-23 22:50:00,46.6,40.1,30.25,NNW,333,0.0,0.0,78,0.00,,,0.08,Wunderground v.1.15,2013-05-24 03:50:00,
2013-05-23 22:55:00,46.3,40.1,30.25,NNW,333,0.0,0.0,79,0.00,,,0.08,Wunderground v.1.15,2013-05-24 03:55:00,
2013-05-23 23:00:00,46.0,40.2,30.26,NNW,333,0.0,0.0,80,0.00,,,0.08,Wunderground v.1.15,2013-05-24 04:00:00,
2013-05-23 23:05:00,45.7,40.2,30.26,NNW,333,0.0,0.0,81,0.00,,,0.08,Wunderground v.1.15,2013-05-24 04:05:00,
2013-05-23 23:15:00,45.0,39.8,30.26,NNW,333,0.0,0.0,82,0.00,,,0.08,Wunderground v.1.15,2013-05-24 04:15:00,
2013-05-23 23:20:00,44.8,40.0,30.26,NNW,333,0.0,0.0,83,0.00,,,0.08,Wunderground v.1.15,2013-05-24 04:20:00,
2013-05-23 23:25:00,44.5,40.0,30.26,NNW,333,0.0,0.0,84,0.00,,,0.08,Wunderground v.1.15,2013-05-24 04:25:00,
2013-05-23 23:30:00,44.3,39.8,30.26,NNW,333,0.0,0.0,84,0.00,,,0.08,Wunderground v.1.15,2013-05-24 04:30:00,
2013-05-23 23:35:00,44.1,39.9,30.26,NNW,333,0.0,0.0,85,0.00,,,0.08,Wunderground v.1.15,2013-05-24 04:35:00,
2013-05-23 23:45:00,43.6,39.4,30.27,NNW,333,0.0,0.0,85,0.00,,,0.08,Wunderground v.1.15,2013-05-24 04:45:00,
2013-05-23 23:49:00,43.5,39.3,30.27,NNW,333,0.0,0.0,85,0.00,,,0.08,Wunderground v.1.15,2013-05-24 04:49:00,
2013-05-23 23:55:00,43.3,39.4,30.28,NNW,333,0.0,0.0,86,0.00,,,0.08,Wunderground v.1.15,2013-05-24 04:55:00,